sensor_id;sensor_type;location;lat;lon;timestamp;pressure;altitude;pressure_sealevel;temperature
34310;BMP280;61664;48.112;11.662;2023-07-13T00:01:54;95504.56;;;20.96
34310;BMP280;61664;48.112;11.662;2023-07-13T00:04:24;95509.16;;;21.01
34310;BMP280;61664;48.112;11.662;2023-07-13T00:06:53;95496.41;;;20.96
34310;BMP280;61664;48.112;11.662;2023-07-13T00:09:21;95503.22;;;21.03
34310;BMP280;61664;48.112;11.662;2023-07-13T00:11:55;95483.25;;;21.00
34310;BMP280;61664;48.112;11.662;2023-07-13T00:14:25;95479.72;;;20.92
34310;BMP280;61664;48.112;11.662;2023-07-13T00:16:52;95481.94;;;20.94
34310;BMP280;61664;48.112;11.662;2023-07-13T00:19:20;95491.09;;;21.04
34310;BMP280;61664;48.112;11.662;2023-07-13T00:21:48;95492.34;;;21.03
34310;BMP280;61664;48.112;11.662;2023-07-13T00:24:18;95511.94;;;21.09
34310;BMP280;61664;48.112;11.662;2023-07-13T00:26:51;95513.94;;;21.09
34310;BMP280;61664;48.112;11.662;2023-07-13T00:29:18;95515.63;;;21.12
34310;BMP280;61664;48.112;11.662;2023-07-13T00:31:48;95497.06;;;21.02
34310;BMP280;61664;48.112;11.662;2023-07-13T00:34:14;95503.94;;;21.03
34310;BMP280;61664;48.112;11.662;2023-07-13T00:36:41;95515.94;;;21.08
34310;BMP280;61664;48.112;11.662;2023-07-13T00:39:08;95503.56;;;20.99
34310;BMP280;61664;48.112;11.662;2023-07-13T00:41:35;95524.59;;;21.07
34310;BMP280;61664;48.112;11.662;2023-07-13T00:44:04;95519.91;;;21.07
34310;BMP280;61664;48.112;11.662;2023-07-13T00:46:34;95522.81;;;21.09
34310;BMP280;61664;48.112;11.662;2023-07-13T00:49:06;95510.63;;;21.02
34310;BMP280;61664;48.112;11.662;2023-07-13T00:51:43;95508.03;;;20.97
34310;BMP280;61664;48.112;11.662;2023-07-13T00:54:17;95507.50;;;20.98
34310;BMP280;61664;48.112;11.662;2023-07-13T00:56:47;95509.38;;;21.03
34310;BMP280;61664;48.112;11.662;2023-07-13T00:59:17;95503.75;;;21.01
34310;BMP280;61664;48.112;11.662;2023-07-13T01:01:46;95505.59;;;21.07
34310;BMP280;61664;48.112;11.662;2023-07-13T01:04:13;95508.03;;;21.18
34310;BMP280;61664;48.112;11.662;2023-07-13T01:06:42;95507.00;;;21.21
34310;BMP280;61664;48.112;11.662;2023-07-13T01:09:11;95486.56;;;21.20
34310;BMP280;61664;48.112;11.662;2023-07-13T01:11:40;95490.03;;;21.28
34310;BMP280;61664;48.112;11.662;2023-07-13T01:14:08;95485.03;;;21.32
34310;BMP280;61664;48.112;11.662;2023-07-13T01:16:39;95483.94;;;21.35
34310;BMP280;61664;48.112;11.662;2023-07-13T01:19:48;95466.53;;;21.30
34310;BMP280;61664;48.112;11.662;2023-07-13T01:22:18;95475.59;;;21.33
34310;BMP280;61664;48.112;11.662;2023-07-13T01:24:47;95456.16;;;21.29
34310;BMP280;61664;48.112;11.662;2023-07-13T01:27:20;95453.66;;;21.31
34310;BMP280;61664;48.112;11.662;2023-07-13T01:29:47;95458.56;;;21.32
34310;BMP280;61664;48.112;11.662;2023-07-13T01:32:19;95452.41;;;21.32
34310;BMP280;61664;48.112;11.662;2023-07-13T01:34:54;95442.38;;;21.27
34310;BMP280;61664;48.112;11.662;2023-07-13T01:37:26;95443.84;;;21.28
34310;BMP280;61664;48.112;11.662;2023-07-13T01:39:53;95453.44;;;21.29
34310;BMP280;61664;48.112;11.662;2023-07-13T01:42:20;95452.00;;;21.28
34310;BMP280;61664;48.112;11.662;2023-07-13T01:44:47;95430.94;;;21.21
34310;BMP280;61664;48.112;11.662;2023-07-13T01:47:14;95449.06;;;21.26
34310;BMP280;61664;48.112;11.662;2023-07-13T01:49:41;95455.97;;;21.27
34310;BMP280;61664;48.112;11.662;2023-07-13T01:52:08;95457.22;;;21.26
34310;BMP280;61664;48.112;11.662;2023-07-13T01:54:35;95468.09;;;21.26
34310;BMP280;61664;48.112;11.662;2023-07-13T01:57:02;95470.81;;;21.26
34310;BMP280;61664;48.112;11.662;2023-07-13T01:59:30;95462.09;;;21.20
34310;BMP280;61664;48.112;11.662;2023-07-13T02:01:57;95479.16;;;21.28
34310;BMP280;61664;48.112;11.662;2023-07-13T02:04:24;95488.75;;;21.29
34310;BMP280;61664;48.112;11.662;2023-07-13T02:06:51;95486.94;;;21.24
34310;BMP280;61664;48.112;11.662;2023-07-13T02:09:18;95501.13;;;21.30
34310;BMP280;61664;48.112;11.662;2023-07-13T02:11:45;95511.78;;;21.28
34310;BMP280;61664;48.112;11.662;2023-07-13T02:14:11;95502.69;;;21.25
34310;BMP280;61664;48.112;11.662;2023-07-13T02:16:38;95495.63;;;21.22
34310;BMP280;61664;48.112;11.662;2023-07-13T02:19:05;95499.88;;;21.31
34310;BMP280;61664;48.112;11.662;2023-07-13T02:21:33;95489.84;;;21.26
34310;BMP280;61664;48.112;11.662;2023-07-13T02:24:00;95501.31;;;21.32
34310;BMP280;61664;48.112;11.662;2023-07-13T02:26:27;95500.38;;;21.29
34310;BMP280;61664;48.112;11.662;2023-07-13T02:28:54;95502.59;;;21.31
34310;BMP280;61664;48.112;11.662;2023-07-13T02:31:21;95508.78;;;21.39
34310;BMP280;61664;48.112;11.662;2023-07-13T02:33:48;95515.91;;;21.42
34310;BMP280;61664;48.112;11.662;2023-07-13T02:36:15;95497.09;;;21.44
34310;BMP280;61664;48.112;11.662;2023-07-13T02:38:43;95502.13;;;21.40
34310;BMP280;61664;48.112;11.662;2023-07-13T02:41:09;95504.16;;;21.47
34310;BMP280;61664;48.112;11.662;2023-07-13T02:43:37;95522.34;;;21.52
34310;BMP280;61664;48.112;11.662;2023-07-13T02:46:04;95525.25;;;21.54
34310;BMP280;61664;48.112;11.662;2023-07-13T02:48:36;95534.50;;;21.59
34310;BMP280;61664;48.112;11.662;2023-07-13T02:51:04;95529.59;;;21.57
34310;BMP280;61664;48.112;11.662;2023-07-13T02:53:32;95541.44;;;21.60
34310;BMP280;61664;48.112;11.662;2023-07-13T02:55:59;95548.44;;;21.55
34310;BMP280;61664;48.112;11.662;2023-07-13T02:58:26;95550.56;;;21.49
34310;BMP280;61664;48.112;11.662;2023-07-13T03:00:53;95551.44;;;21.44
34310;BMP280;61664;48.112;11.662;2023-07-13T03:03:20;95550.31;;;21.39
34310;BMP280;61664;48.112;11.662;2023-07-13T03:05:47;95537.91;;;21.31
34310;BMP280;61664;48.112;11.662;2023-07-13T03:08:17;95538.56;;;21.24
34310;BMP280;61664;48.112;11.662;2023-07-13T03:10:45;95550.47;;;21.21
34310;BMP280;61664;48.112;11.662;2023-07-13T03:13:12;95556.69;;;21.08
34310;BMP280;61664;48.112;11.662;2023-07-13T03:15:38;95553.59;;;20.91
34310;BMP280;61664;48.112;11.662;2023-07-13T03:18:05;95540.75;;;20.78
34310;BMP280;61664;48.112;11.662;2023-07-13T03:20:35;95552.16;;;20.77
34310;BMP280;61664;48.112;11.662;2023-07-13T03:23:04;95560.84;;;20.62
34310;BMP280;61664;48.112;11.662;2023-07-13T03:25:31;95554.06;;;20.55
34310;BMP280;61664;48.112;11.662;2023-07-13T03:27:58;95567.53;;;20.61
34310;BMP280;61664;48.112;11.662;2023-07-13T03:30:25;95557.50;;;20.56
34310;BMP280;61664;48.112;11.662;2023-07-13T03:32:51;95567.63;;;20.55
34310;BMP280;61664;48.112;11.662;2023-07-13T03:35:18;95556.44;;;20.46
34310;BMP280;61664;48.112;11.662;2023-07-13T03:37:45;95559.78;;;20.39
34310;BMP280;61664;48.112;11.662;2023-07-13T03:40:13;95565.88;;;20.32
34310;BMP280;61664;48.112;11.662;2023-07-13T03:42:40;95578.38;;;20.35
34310;BMP280;61664;48.112;11.662;2023-07-13T03:45:08;95578.69;;;20.31
34310;BMP280;61664;48.112;11.662;2023-07-13T03:47:35;95585.88;;;20.29
34310;BMP280;61664;48.112;11.662;2023-07-13T03:50:02;95587.75;;;20.34
34310;BMP280;61664;48.112;11.662;2023-07-13T03:52:30;95586.31;;;20.33
34310;BMP280;61664;48.112;11.662;2023-07-13T03:54:57;95576.06;;;20.25
34310;BMP280;61664;48.112;11.662;2023-07-13T03:57:24;95589.13;;;20.27
34310;BMP280;61664;48.112;11.662;2023-07-13T03:59:51;95590.47;;;20.20
34310;BMP280;61664;48.112;11.662;2023-07-13T04:02:18;95586.91;;;20.25
34310;BMP280;61664;48.112;11.662;2023-07-13T04:04:46;95582.75;;;20.24
34310;BMP280;61664;48.112;11.662;2023-07-13T04:07:13;95592.56;;;20.27
34310;BMP280;61664;48.112;11.662;2023-07-13T04:09:40;95584.59;;;20.16
34310;BMP280;61664;48.112;11.662;2023-07-13T04:12:07;95574.81;;;20.13
34310;BMP280;61664;48.112;11.662;2023-07-13T04:14:34;95574.63;;;20.11
34310;BMP280;61664;48.112;11.662;2023-07-13T04:17:01;95583.16;;;20.15
34310;BMP280;61664;48.112;11.662;2023-07-13T04:19:28;95577.00;;;20.15
34310;BMP280;61664;48.112;11.662;2023-07-13T04:21:55;95586.16;;;20.12
34310;BMP280;61664;48.112;11.662;2023-07-13T04:24:22;95592.63;;;20.09
34310;BMP280;61664;48.112;11.662;2023-07-13T04:26:49;95592.75;;;20.03
34310;BMP280;61664;48.112;11.662;2023-07-13T04:29:16;95590.84;;;19.98
34310;BMP280;61664;48.112;11.662;2023-07-13T04:31:43;95591.88;;;19.95
34310;BMP280;61664;48.112;11.662;2023-07-13T04:34:10;95592.81;;;19.98
34310;BMP280;61664;48.112;11.662;2023-07-13T04:36:37;95592.53;;;20.01
34310;BMP280;61664;48.112;11.662;2023-07-13T04:39:04;95588.88;;;19.99
34310;BMP280;61664;48.112;11.662;2023-07-13T04:41:31;95586.66;;;19.97
34310;BMP280;61664;48.112;11.662;2023-07-13T04:43:58;95598.19;;;20.03
34310;BMP280;61664;48.112;11.662;2023-07-13T04:46:25;95594.72;;;20.03
34310;BMP280;61664;48.112;11.662;2023-07-13T04:48:52;95595.47;;;20.03
34310;BMP280;61664;48.112;11.662;2023-07-13T04:51:20;95611.31;;;20.12
34310;BMP280;61664;48.112;11.662;2023-07-13T04:53:47;95603.72;;;20.11
34310;BMP280;61664;48.112;11.662;2023-07-13T04:56:14;95603.41;;;20.14
34310;BMP280;61664;48.112;11.662;2023-07-13T04:58:41;95603.91;;;20.13
34310;BMP280;61664;48.112;11.662;2023-07-13T05:01:09;95610.72;;;20.19
34310;BMP280;61664;48.112;11.662;2023-07-13T05:03:37;95614.88;;;20.20
34310;BMP280;61664;48.112;11.662;2023-07-13T05:06:08;95617.38;;;20.18
34310;BMP280;61664;48.112;11.662;2023-07-13T05:08:36;95627.50;;;20.18
34310;BMP280;61664;48.112;11.662;2023-07-13T05:11:05;95619.44;;;20.12
34310;BMP280;61664;48.112;11.662;2023-07-13T05:13:34;95624.03;;;20.04
34310;BMP280;61664;48.112;11.662;2023-07-13T05:16:04;95618.81;;;20.06
34310;BMP280;61664;48.112;11.662;2023-07-13T05:18:33;95622.91;;;20.13
34310;BMP280;61664;48.112;11.662;2023-07-13T05:21:07;95614.75;;;20.13
34310;BMP280;61664;48.112;11.662;2023-07-13T05:23:36;95614.56;;;20.11
34310;BMP280;61664;48.112;11.662;2023-07-13T05:26:04;95619.34;;;20.18
34310;BMP280;61664;48.112;11.662;2023-07-13T05:28:36;95611.47;;;20.20
34310;BMP280;61664;48.112;11.662;2023-07-13T05:31:04;95615.41;;;20.19
34310;BMP280;61664;48.112;11.662;2023-07-13T05:33:31;95625.22;;;20.22
34310;BMP280;61664;48.112;11.662;2023-07-13T05:35:58;95631.78;;;20.26
34310;BMP280;61664;48.112;11.662;2023-07-13T05:38:28;95628.78;;;20.30
34310;BMP280;61664;48.112;11.662;2023-07-13T05:40:56;95636.59;;;20.34
34310;BMP280;61664;48.112;11.662;2023-07-13T05:43:23;95641.44;;;20.41
34310;BMP280;61664;48.112;11.662;2023-07-13T05:45:56;95637.25;;;20.40
34310;BMP280;61664;48.112;11.662;2023-07-13T05:48:24;95640.56;;;20.46
34310;BMP280;61664;48.112;11.662;2023-07-13T05:50:51;95622.63;;;20.43
34310;BMP280;61664;48.112;11.662;2023-07-13T05:53:18;95624.50;;;20.48
34310;BMP280;61664;48.112;11.662;2023-07-13T05:55:47;95632.97;;;20.57
34310;BMP280;61664;48.112;11.662;2023-07-13T05:58:17;95638.53;;;20.65
34310;BMP280;61664;48.112;11.662;2023-07-13T06:00:44;95631.44;;;20.62
34310;BMP280;61664;48.112;11.662;2023-07-13T06:03:11;95634.66;;;20.74
34310;BMP280;61664;48.112;11.662;2023-07-13T06:05:39;95625.47;;;20.77
34310;BMP280;61664;48.112;11.662;2023-07-13T06:08:07;95634.53;;;20.92
34310;BMP280;61664;48.112;11.662;2023-07-13T06:10:37;95636.09;;;21.01
34310;BMP280;61664;48.112;11.662;2023-07-13T06:13:04;95646.84;;;21.07
34310;BMP280;61664;48.112;11.662;2023-07-13T06:15:31;95643.31;;;21.12
34310;BMP280;61664;48.112;11.662;2023-07-13T06:17:58;95645.88;;;21.17
34310;BMP280;61664;48.112;11.662;2023-07-13T06:20:25;95638.28;;;21.16
34310;BMP280;61664;48.112;11.662;2023-07-13T06:22:52;95656.84;;;21.25
34310;BMP280;61664;48.112;11.662;2023-07-13T06:25:19;95659.78;;;21.27
34310;BMP280;61664;48.112;11.662;2023-07-13T06:27:46;95659.78;;;21.27
34310;BMP280;61664;48.112;11.662;2023-07-13T06:30:13;95657.25;;;21.29
34310;BMP280;61664;48.112;11.662;2023-07-13T06:32:40;95673.34;;;21.40
34310;BMP280;61664;48.112;11.662;2023-07-13T06:35:08;95669.97;;;21.47
34310;BMP280;61664;48.112;11.662;2023-07-13T06:37:35;95670.38;;;21.51
34310;BMP280;61664;48.112;11.662;2023-07-13T06:40:02;95667.56;;;21.57
34310;BMP280;61664;48.112;11.662;2023-07-13T06:42:30;95670.38;;;21.51
34310;BMP280;61664;48.112;11.662;2023-07-13T06:44:57;95671.84;;;21.52
34310;BMP280;61664;48.112;11.662;2023-07-13T06:47:25;95684.16;;;21.53
34310;BMP280;61664;48.112;11.662;2023-07-13T06:49:52;95685.63;;;21.54
34310;BMP280;61664;48.112;11.662;2023-07-13T06:52:20;95687.63;;;21.54
34310;BMP280;61664;48.112;11.662;2023-07-13T06:54:47;95687.09;;;21.55
34310;BMP280;61664;48.112;11.662;2023-07-13T06:57:14;95697.25;;;21.55
34310;BMP280;61664;48.112;11.662;2023-07-13T06:59:41;95696.91;;;21.58
34310;BMP280;61664;48.112;11.662;2023-07-13T07:02:10;95683.44;;;21.53
34310;BMP280;61664;48.112;11.662;2023-07-13T07:04:37;95683.78;;;21.49
34310;BMP280;61664;48.112;11.662;2023-07-13T07:07:04;95689.94;;;21.50
34310;BMP280;61664;48.112;11.662;2023-07-13T07:09:31;95687.00;;;21.48
34310;BMP280;61664;48.112;11.662;2023-07-13T07:11:58;95688.16;;;21.52
34310;BMP280;61664;48.112;11.662;2023-07-13T07:14:31;95702.34;;;21.58
34310;BMP280;61664;48.112;11.662;2023-07-13T07:16:58;95693.53;;;21.65
34310;BMP280;61664;48.112;11.662;2023-07-13T07:19:27;95688.41;;;21.75
34310;BMP280;61664;48.112;11.662;2023-07-13T07:21:54;95685.22;;;21.84
34310;BMP280;61664;48.112;11.662;2023-07-13T07:24:21;95689.34;;;21.98
34310;BMP280;61664;48.112;11.662;2023-07-13T07:26:48;95695.94;;;22.03
34310;BMP280;61664;48.112;11.662;2023-07-13T07:29:18;95689.22;;;22.04
34310;BMP280;61664;48.112;11.662;2023-07-13T07:31:48;95689.63;;;22.08
34310;BMP280;61664;48.112;11.662;2023-07-13T07:34:29;95689.75;;;22.02
34310;BMP280;61664;48.112;11.662;2023-07-13T07:37:00;95699.84;;;22.15
34310;BMP280;61664;48.112;11.662;2023-07-13T07:39:31;95707.41;;;22.09
34310;BMP280;61664;48.112;11.662;2023-07-13T07:41:58;95713.63;;;21.96
34310;BMP280;61664;48.112;11.662;2023-07-13T07:44:25;95705.13;;;21.79
34310;BMP280;61664;48.112;11.662;2023-07-13T07:46:53;95712.72;;;21.60
34310;BMP280;61664;48.112;11.662;2023-07-13T07:49:21;95723.78;;;21.62
34310;BMP280;61664;48.112;11.662;2023-07-13T07:51:48;95724.44;;;21.55
34310;BMP280;61664;48.112;11.662;2023-07-13T07:54:15;95733.66;;;21.52
34310;BMP280;61664;48.112;11.662;2023-07-13T07:57:02;95729.56;;;21.45
34310;BMP280;61664;48.112;11.662;2023-07-13T07:59:49;95745.69;;;21.43
34310;BMP280;61664;48.112;11.662;2023-07-13T08:02:19;95744.94;;;21.42
34310;BMP280;61664;48.112;11.662;2023-07-13T08:04:48;95742.03;;;21.40
34310;BMP280;61664;48.112;11.662;2023-07-13T08:07:18;95740.88;;;21.36
34310;BMP280;61664;48.112;11.662;2023-07-13T08:09:45;95754.47;;;21.36
34310;BMP280;61664;48.112;11.662;2023-07-13T08:12:13;95754.47;;;21.36
34310;BMP280;61664;48.112;11.662;2023-07-13T08:14:43;95754.47;;;21.36
34310;BMP280;61664;48.112;11.662;2023-07-13T08:17:20;95758.63;;;21.37
34310;BMP280;61664;48.112;11.662;2023-07-13T08:19:47;95753.72;;;21.35
34310;BMP280;61664;48.112;11.662;2023-07-13T08:22:14;95756.44;;;21.35
34310;BMP280;61664;48.112;11.662;2023-07-13T08:24:41;95760.34;;;21.40
34310;BMP280;61664;48.112;11.662;2023-07-13T08:27:12;95758.03;;;21.44
34310;BMP280;61664;48.112;11.662;2023-07-13T08:29:39;95754.22;;;21.47
34310;BMP280;61664;48.112;11.662;2023-07-13T08:32:07;95759.69;;;21.47
34310;BMP280;61664;48.112;11.662;2023-07-13T08:34:36;95765.84;;;21.48
34310;BMP280;61664;48.112;11.662;2023-07-13T08:37:03;95770.34;;;21.45
34310;BMP280;61664;48.112;11.662;2023-07-13T08:39:31;95767.75;;;21.39
34310;BMP280;61664;48.112;11.662;2023-07-13T08:42:18;95775.38;;;21.41
34310;BMP280;61664;48.112;11.662;2023-07-13T08:45:23;95769.31;;;21.35
34310;BMP280;61664;48.112;11.662;2023-07-13T08:48:02;95779.13;;;21.38
34310;BMP280;61664;48.112;11.662;2023-07-13T08:50:35;95778.72;;;21.34
34310;BMP280;61664;48.112;11.662;2023-07-13T08:53:48;95787.50;;;21.27
34310;BMP280;61664;48.112;11.662;2023-07-13T08:56:23;95795.84;;;21.29
34310;BMP280;61664;48.112;11.662;2023-07-13T08:59:09;95782.91;;;21.22
34310;BMP280;61664;48.112;11.662;2023-07-13T09:05:04;95792.84;;;21.32
34310;BMP280;61664;48.112;11.662;2023-07-13T09:10:45;95790.81;;;21.46
34310;BMP280;61664;48.112;11.662;2023-07-13T09:15:51;95783.19;;;21.71
34310;BMP280;61664;48.112;11.662;2023-07-13T09:18:46;95779.47;;;21.81
34310;BMP280;61664;48.112;11.662;2023-07-13T09:21:47;95783.81;;;21.98
34310;BMP280;61664;48.112;11.662;2023-07-13T09:25:00;95777.09;;;22.12
34310;BMP280;61664;48.112;11.662;2023-07-13T09:27:35;95777.38;;;22.21
34310;BMP280;61664;48.112;11.662;2023-07-13T09:32:45;95780.63;;;22.41
34310;BMP280;61664;48.112;11.662;2023-07-13T09:35:21;95778.56;;;22.34
34310;BMP280;61664;48.112;11.662;2023-07-13T09:37:49;95790.63;;;22.25
34310;BMP280;61664;48.112;11.662;2023-07-13T09:40:49;95779.50;;;22.15
34310;BMP280;61664;48.112;11.662;2023-07-13T09:43:21;95777.97;;;22.28
34310;BMP280;61664;48.112;11.662;2023-07-13T09:45:48;95781.16;;;22.39
34310;BMP280;61664;48.112;11.662;2023-07-13T09:48:17;95785.63;;;22.50
34310;BMP280;61664;48.112;11.662;2023-07-13T09:50:45;95793.63;;;22.55
34310;BMP280;61664;48.112;11.662;2023-07-13T09:53:15;95785.06;;;22.51
34310;BMP280;61664;48.112;11.662;2023-07-13T09:55:46;95789.81;;;22.58
34310;BMP280;61664;48.112;11.662;2023-07-13T09:58:25;95782.06;;;22.62
34310;BMP280;61664;48.112;11.662;2023-07-13T10:01:02;95775.81;;;22.75
34310;BMP280;61664;48.112;11.662;2023-07-13T10:03:36;95780.66;;;22.90
34310;BMP280;61664;48.112;11.662;2023-07-13T10:06:19;95791.47;;;23.03
34310;BMP280;61664;48.112;11.662;2023-07-13T10:08:49;95785.72;;;23.14
34310;BMP280;61664;48.112;11.662;2023-07-13T10:11:27;95793.03;;;23.27
34310;BMP280;61664;48.112;11.662;2023-07-13T10:13:59;95800.41;;;23.39
34310;BMP280;61664;48.112;11.662;2023-07-13T10:16:31;95794.09;;;23.60
34310;BMP280;61664;48.112;11.662;2023-07-13T10:19:15;95808.78;;;24.00
34310;BMP280;61664;48.112;11.662;2023-07-13T10:21:54;95787.38;;;24.50
34310;BMP280;61664;48.112;11.662;2023-07-13T10:24:25;95797.31;;;25.08
34310;BMP280;61664;48.112;11.662;2023-07-13T10:29:38;95793.44;;;26.31
34310;BMP280;61664;48.112;11.662;2023-07-13T10:32:12;95796.09;;;27.32
34310;BMP280;61664;48.112;11.662;2023-07-13T10:34:44;95802.63;;;28.17
34310;BMP280;61664;48.112;11.662;2023-07-13T10:37:26;95792.44;;;29.33
34310;BMP280;61664;48.112;11.662;2023-07-13T10:39:56;95802.31;;;29.86
34310;BMP280;61664;48.112;11.662;2023-07-13T10:42:33;95795.31;;;29.35
34310;BMP280;61664;48.112;11.662;2023-07-13T10:45:01;95804.19;;;28.95
34310;BMP280;61664;48.112;11.662;2023-07-13T10:47:28;95798.09;;;28.67
34310;BMP280;61664;48.112;11.662;2023-07-13T10:49:58;95801.16;;;28.81
34310;BMP280;61664;48.112;11.662;2023-07-13T10:52:48;95801.75;;;28.99
34310;BMP280;61664;48.112;11.662;2023-07-13T10:55:40;95803.75;;;29.17
34310;BMP280;61664;48.112;11.662;2023-07-13T10:58:23;95795.59;;;29.58
34310;BMP280;61664;48.112;11.662;2023-07-13T11:03:31;95803.47;;;30.14
34310;BMP280;61664;48.112;11.662;2023-07-13T11:06:11;95793.56;;;30.30
34310;BMP280;61664;48.112;11.662;2023-07-13T11:24:59;95805.00;;;29.55
34310;BMP280;61664;48.112;11.662;2023-07-13T11:30:21;95815.34;;;29.76
34310;BMP280;61664;48.112;11.662;2023-07-13T11:36:10;95801.19;;;30.10
34310;BMP280;61664;48.112;11.662;2023-07-13T11:38:42;95799.06;;;30.30
34310;BMP280;61664;48.112;11.662;2023-07-13T11:41:18;95801.88;;;30.20
34310;BMP280;61664;48.112;11.662;2023-07-13T11:43:50;95777.16;;;30.01
34310;BMP280;61664;48.112;11.662;2023-07-13T11:46:24;95783.63;;;29.75
34310;BMP280;61664;48.112;11.662;2023-07-13T11:48:54;95771.16;;;29.33
34310;BMP280;61664;48.112;11.662;2023-07-13T11:51:23;95766.00;;;28.99
34310;BMP280;61664;48.112;11.662;2023-07-13T11:53:55;95762.78;;;28.74
34310;BMP280;61664;48.112;11.662;2023-07-13T11:56:25;95768.00;;;28.50
34310;BMP280;61664;48.112;11.662;2023-07-13T11:58:56;95770.22;;;28.25
34310;BMP280;61664;48.112;11.662;2023-07-13T12:01:32;95767.03;;;28.19
34310;BMP280;61664;48.112;11.662;2023-07-13T12:04:03;95759.97;;;28.25
34310;BMP280;61664;48.112;11.662;2023-07-13T12:06:33;95765.38;;;28.52
34310;BMP280;61664;48.112;11.662;2023-07-13T12:09:12;95755.84;;;28.73
34310;BMP280;61664;48.112;11.662;2023-07-13T12:11:42;95761.34;;;28.82
34310;BMP280;61664;48.112;11.662;2023-07-13T12:14:17;95752.81;;;29.07
34310;BMP280;61664;48.112;11.662;2023-07-13T12:16:46;95764.47;;;29.46
34310;BMP280;61664;48.112;11.662;2023-07-13T12:19:26;95751.34;;;29.66
34310;BMP280;61664;48.112;11.662;2023-07-13T12:21:57;95764.91;;;29.83
34310;BMP280;61664;48.112;11.662;2023-07-13T12:24:25;95764.63;;;29.79
34310;BMP280;61664;48.112;11.662;2023-07-13T12:27:04;95761.09;;;30.19
34310;BMP280;61664;48.112;11.662;2023-07-13T12:29:33;95763.09;;;30.49
34310;BMP280;61664;48.112;11.662;2023-07-13T12:32:00;95759.25;;;30.75
34310;BMP280;61664;48.112;11.662;2023-07-13T12:34:27;95750.91;;;30.85
34310;BMP280;61664;48.112;11.662;2023-07-13T12:37:09;95748.13;;;30.52
34310;BMP280;61664;48.112;11.662;2023-07-13T12:39:47;95751.53;;;30.20
34310;BMP280;61664;48.112;11.662;2023-07-13T12:42:21;95750.28;;;30.11
34310;BMP280;61664;48.112;11.662;2023-07-13T12:44:58;95757.50;;;30.16
34310;BMP280;61664;48.112;11.662;2023-07-13T12:47:27;95747.41;;;30.09
34310;BMP280;61664;48.112;11.662;2023-07-13T12:49:58;95746.72;;;29.99
34310;BMP280;61664;48.112;11.662;2023-07-13T12:52:34;95736.69;;;29.73
34310;BMP280;61664;48.112;11.662;2023-07-13T12:55:15;95728.47;;;29.63
34310;BMP280;61664;48.112;11.662;2023-07-13T12:57:58;95728.16;;;29.69
34310;BMP280;61664;48.112;11.662;2023-07-13T13:00:32;95743.84;;;29.66
34310;BMP280;61664;48.112;11.662;2023-07-13T13:03:31;95740.69;;;29.50
34310;BMP280;61664;48.112;11.662;2023-07-13T13:08:39;95727.28;;;29.26
34310;BMP280;61664;48.112;11.662;2023-07-13T13:11:08;95716.53;;;29.39
34310;BMP280;61664;48.112;11.662;2023-07-13T13:13:36;95728.81;;;29.57
34310;BMP280;61664;48.112;11.662;2023-07-13T13:16:35;95715.16;;;29.59
34310;BMP280;61664;48.112;11.662;2023-07-13T13:19:18;95709.94;;;29.63
34310;BMP280;61664;48.112;11.662;2023-07-13T13:21:46;95714.09;;;29.64
34310;BMP280;61664;48.112;11.662;2023-07-13T13:24:23;95723.31;;;30.09
34310;BMP280;61664;48.112;11.662;2023-07-13T13:26:52;95721.53;;;30.89
34310;BMP280;61664;48.112;11.662;2023-07-13T13:29:23;95723.50;;;31.10
34310;BMP280;61664;48.112;11.662;2023-07-13T13:31:56;95710.59;;;31.71
34310;BMP280;61664;48.112;11.662;2023-07-13T13:34:24;95719.25;;;32.25
34310;BMP280;61664;48.112;11.662;2023-07-13T13:36:54;95711.97;;;32.07
34310;BMP280;61664;48.112;11.662;2023-07-13T13:39:36;95723.38;;;32.01
34310;BMP280;61664;48.112;11.662;2023-07-13T13:42:04;95707.31;;;32.34
34310;BMP280;61664;48.112;11.662;2023-07-13T13:44:31;95721.03;;;32.32
34310;BMP280;61664;48.112;11.662;2023-07-13T13:46:58;95727.41;;;31.98
34310;BMP280;61664;48.112;11.662;2023-07-13T13:49:27;95727.41;;;31.51
34310;BMP280;61664;48.112;11.662;2023-07-13T13:51:55;95728.22;;;31.19
34310;BMP280;61664;48.112;11.662;2023-07-13T13:54:24;95737.53;;;31.14
34310;BMP280;61664;48.112;11.662;2023-07-13T13:56:52;95742.09;;;31.10
34310;BMP280;61664;48.112;11.662;2023-07-13T13:59:19;95733.03;;;31.19
34310;BMP280;61664;48.112;11.662;2023-07-13T14:01:48;95744.09;;;31.30
34310;BMP280;61664;48.112;11.662;2023-07-13T14:04:20;95735.50;;;31.15
34310;BMP280;61664;48.112;11.662;2023-07-13T14:06:48;95732.13;;;31.04
34310;BMP280;61664;48.112;11.662;2023-07-13T14:09:19;95713.28;;;31.01
34310;BMP280;61664;48.112;11.662;2023-07-13T14:11:47;95724.88;;;31.32
34310;BMP280;61664;48.112;11.662;2023-07-13T14:14:22;95727.13;;;32.42
34310;BMP280;61664;48.112;11.662;2023-07-13T14:16:51;95716.84;;;34.02
34310;BMP280;61664;48.112;11.662;2023-07-13T14:19:21;95719.38;;;35.16
34310;BMP280;61664;48.112;11.662;2023-07-13T14:21:49;95716.94;;;35.39
34310;BMP280;61664;48.112;11.662;2023-07-13T14:24:16;95735.75;;;35.90
34310;BMP280;61664;48.112;11.662;2023-07-13T14:26:46;95734.72;;;36.32
34310;BMP280;61664;48.112;11.662;2023-07-13T14:29:18;95735.13;;;36.62
34310;BMP280;61664;48.112;11.662;2023-07-13T14:31:50;95729.03;;;37.03
34310;BMP280;61664;48.112;11.662;2023-07-13T14:34:18;95730.78;;;37.73
34310;BMP280;61664;48.112;11.662;2023-07-13T14:36:48;95732.72;;;38.55
34310;BMP280;61664;48.112;11.662;2023-07-13T14:39:20;95728.91;;;38.23
34310;BMP280;61664;48.112;11.662;2023-07-13T14:41:51;95728.75;;;38.40
34310;BMP280;61664;48.112;11.662;2023-07-13T14:44:24;95724.16;;;38.73
34310;BMP280;61664;48.112;11.662;2023-07-13T14:46:52;95734.19;;;38.82
34310;BMP280;61664;48.112;11.662;2023-07-13T14:49:41;95724.22;;;37.64
34310;BMP280;61664;48.112;11.662;2023-07-13T14:52:23;95729.94;;;36.35
34310;BMP280;61664;48.112;11.662;2023-07-13T14:54:53;95733.41;;;35.51
34310;BMP280;61664;48.112;11.662;2023-07-13T14:57:21;95728.75;;;34.93
34310;BMP280;61664;48.112;11.662;2023-07-13T14:59:48;95727.88;;;34.88